Time;durP1;ratioP1;P1;durP2;ratioP2;P2;SDS_P1;SDS_P2;PMS_P1;PMS_P2;Temp;Humidity;BMP_temperature;BMP_pressure;BME280_temperature;BME280_humidity;BME280_pressure;Samples;Min_cycle;Max_cycle;Signal;HPM_P1;HPM_P2
2022/12/27 00:00:51;;;;;;;4.25;1.50;;;;;;;3.28;100.00;98720.56;15279927;19;20050;-60
2022/12/27 00:06:18;;;;;;;3.75;1.38;;;;;;;3.30;100.00;98696.47;15289355;19;20418;-61
2022/12/27 00:11:43;;;;;;;2.45;1.30;;;;;;;3.26;100.00;98713.63;15285252;19;20666;-62
2022/12/27 00:17:18;;;;;;;4.38;1.63;;;;;;;3.21;100.00;98724.63;15290161;19;20024;-61
2022/12/27 00:22:43;;;;;;;4.22;1.50;;;;;;;3.03;100.00;98732.91;15288610;19;20512;-62
2022/12/27 00:28:07;;;;;;;5.00;1.70;;;;;;;2.88;100.00;98749.94;15289302;19;20488;-61
2022/12/27 00:33:43;;;;;;;3.13;1.33;;;;;;;2.73;100.00;98730.53;15279242;19;20448;-58
2022/12/27 00:39:08;;;;;;;3.88;1.60;;;;;;;2.70;100.00;98741.41;15288512;19;20490;-59
2022/12/27 00:44:32;;;;;;;3.83;1.48;;;;;;;2.58;100.00;98751.03;15277921;19;20413;-60
2022/12/27 00:50:00;;;;;;;2.63;1.10;;;;;;;2.56;100.00;98768.91;15287190;19;20395;-60
2022/12/27 00:55:19;;;;;;;2.78;1.20;;;;;;;2.47;100.00;98771.22;15289125;19;20011;-58
2022/12/27 01:00:44;;;;;;;3.83;1.23;;;;;;;2.39;100.00;98773.53;15286688;19;20006;-58
2022/12/27 01:06:15;;;;;;;3.38;1.08;;;;;;;2.28;100.00;98802.66;15285312;19;20017;-61
2022/12/27 01:11:40;;;;;;;3.20;1.10;;;;;;;2.20;100.00;98812.91;15286906;19;20018;-62
2022/12/27 01:17:05;;;;;;;3.80;1.10;;;;;;;2.10;100.00;98823.28;15279198;19;20014;-60
2022/12/27 01:22:32;;;;;;;3.03;0.98;;;;;;;2.10;100.00;98829.44;15282207;19;20086;-62
2022/12/27 01:28:04;;;;;;;2.78;0.90;;;;;;;1.99;100.00;98842.56;15276494;19;20029;-78
2022/12/27 01:33:29;;;;;;;5.57;0.90;;;;;;;1.93;100.00;98837.63;15287418;19;20031;-78
2022/12/27 01:38:57;;;;;;;4.72;1.13;;;;;;;1.97;100.00;98844.44;15279222;19;20557;-78
2022/12/27 01:44:50;;;;;;;2.40;0.90;;;;;;;1.84;100.00;98855.84;15285223;19;20036;-78
2022/12/27 01:50:20;;;;;;;3.22;0.82;;;;;;;1.90;100.00;98848.44;15281533;19;20070;-78
2022/12/27 01:55:51;;;;;;;5.20;1.20;;;;;;;1.78;100.00;98858.03;15286609;19;20024;-77
2022/12/27 02:01:19;;;;;;;4.60;0.97;;;;;;;1.68;100.00;98866.56;15286650;19;20110;-78
2022/12/27 02:06:44;;;;;;;3.17;1.00;;;;;;;1.63;100.00;98867.78;15284643;19;20358;-77
2022/12/27 02:12:15;;;;;;;2.92;1.02;;;;;;;1.43;100.00;98883.13;15279964;19;20541;-77
2022/12/27 02:17:40;;;;;;;3.67;0.90;;;;;;;1.37;100.00;98881.72;15280228;19;20015;-78
2022/12/27 02:30:00;;;;;;;4.05;1.23;;;;;;;1.35;100.00;98901.34;15319102;19;20040;-79
2022/12/27 02:35:30;;;;;;;3.30;1.00;;;;;;;1.30;100.00;98892.78;15311545;19;20086;-78
2022/12/27 02:58:18;;;;;;;3.72;1.00;;;;;;;1.13;100.00;98912.34;15311616;19;20086;-81
2022/12/27 03:04:10;;;;;;;3.47;1.10;;;;;;;1.06;100.00;98901.22;15311515;19;20010;-81
2022/12/27 03:15:56;;;;;;;3.33;0.80;;;;;;;1.17;100.00;98928.00;15304669;19;20486;-81
2022/12/27 03:27:07;;;;;;;3.63;1.00;;;;;;;1.08;100.00;98939.16;15299252;19;20033;-80
2022/12/27 03:38:18;;;;;;;3.60;0.85;;;;;;;1.10;100.00;98921.34;15341856;19;20015;-79
2022/12/27 03:43:43;;;;;;;4.07;1.15;;;;;;;1.08;100.00;98920.59;15317536;19;20342;-78
2022/12/27 03:49:19;;;;;;;2.83;1.00;;;;;;;1.06;100.00;98935.72;15305593;19;20022;-82
2022/12/27 03:54:52;;;;;;;3.35;1.00;;;;;;;1.16;100.00;98931.59;15297548;19;20015;-78
2022/12/27 04:00:19;;;;;;;1.70;0.82;;;;;;;1.32;100.00;98933.38;15291941;19;20020;-77
2022/12/27 04:05:44;;;;;;;4.82;0.90;;;;;;;1.22;100.00;98939.22;15290484;19;20018;-77
2022/12/27 04:39:21;;;;;;;4.78;1.02;;;;;;;1.39;100.00;98966.56;15298441;19;20098;-77
2022/12/27 04:56:14;;;;;;;3.38;1.10;;;;;;;1.36;100.00;98977.34;15296014;19;20022;-78
2022/12/27 05:18:39;;;;;;;4.03;1.10;;;;;;;1.01;100.00;99025.34;15297533;19;20080;-80
2022/12/27 05:29:42;;;;;;;4.40;1.10;;;;;;;0.71;100.00;99039.38;15301129;19;20353;-78
2022/12/27 05:35:10;;;;;;;3.70;1.10;;;;;;;0.61;100.00;99029.28;15299011;19;20019;-79
2022/12/27 05:40:36;;;;;;;2.63;0.90;;;;;;;0.53;100.00;99020.84;15303027;19;20010;-78
2022/12/27 05:46:05;;;;;;;3.67;1.20;;;;;;;0.51;100.00;99013.94;15301409;19;20018;-79
2022/12/27 05:51:33;;;;;;;4.00;1.20;;;;;;;0.60;100.00;99011.66;15302260;19;20010;-80
2022/12/27 05:56:58;;;;;;;4.43;1.20;;;;;;;0.82;100.00;99007.81;15296483;19;20015;-78
2022/12/27 06:02:24;;;;;;;3.53;1.00;;;;;;;1.05;100.00;99017.16;15297446;19;20043;-79
2022/12/27 06:07:51;;;;;;;3.22;0.90;;;;;;;1.15;100.00;99040.50;15314591;19;20018;-80
2022/12/27 06:13:17;;;;;;;4.28;1.00;;;;;;;1.26;100.00;99038.09;15312785;19;20014;-80
2022/12/27 06:18:44;;;;;;;3.08;0.95;;;;;;;1.50;100.00;99043.78;15304842;19;20047;-79
2022/12/27 06:24:11;;;;;;;3.67;1.20;;;;;;;1.71;100.00;99034.69;15301337;19;20018;-78
2022/12/27 06:29:42;;;;;;;3.55;1.02;;;;;;;1.77;100.00;99047.59;15292064;19;20029;-78
2022/12/27 06:35:09;;;;;;;2.70;1.00;;;;;;;1.76;100.00;99052.06;15292137;19;20014;-78
2022/12/27 06:40:37;;;;;;;3.10;0.90;;;;;;;1.82;100.00;99045.53;15292720;19;20010;-78
2022/12/27 06:46:05;;;;;;;4.38;1.00;;;;;;;1.83;100.00;99048.09;15291533;19;20401;-78
2022/12/27 06:51:34;;;;;;;2.40;0.93;;;;;;;1.94;100.00;99062.56;15300794;19;20010;-79
2022/12/27 06:57:01;;;;;;;3.95;1.10;;;;;;;1.91;100.00;99070.72;15298662;19;20504;-78
2022/12/27 07:02:26;;;;;;;3.10;1.00;;;;;;;1.85;100.00;99083.41;15289048;19;20015;-78
2022/12/27 07:07:52;;;;;;;3.88;1.15;;;;;;;1.80;100.00;99106.75;15287130;19;20014;-78
2022/12/27 07:13:20;;;;;;;4.60;1.00;;;;;;;1.70;100.00;99113.53;15297277;19;20473;-79
2022/12/27 07:18:45;;;;;;;3.67;1.00;;;;;;;1.59;100.00;99121.25;15299362;19;20019;-82
2022/12/27 07:24:10;;;;;;;3.65;1.00;;;;;;;1.47;100.00;99125.44;15304509;19;20498;-77
2022/12/27 07:29:38;;;;;;;2.80;1.00;;;;;;;1.46;100.00;99129.91;15351292;19;20010;-78
2022/12/27 07:35:03;;;;;;;4.35;1.10;;;;;;;1.46;100.00;99135.22;15300431;19;20044;-79
2022/12/27 07:40:27;;;;;;;2.92;1.20;;;;;;;1.45;100.00;99152.09;15293389;19;20070;-79
2022/12/27 07:45:55;;;;;;;2.40;0.80;;;;;;;1.52;100.00;99166.72;15296758;19;20031;-78
2022/12/27 07:51:19;;;;;;;3.10;1.05;;;;;;;1.63;100.00;99171.47;15301874;19;20014;-78
2022/12/27 07:56:44;;;;;;;4.70;1.13;;;;;;;1.70;100.00;99177.28;15305531;19;20019;-79
2022/12/27 08:02:12;;;;;;;4.07;1.85;;;;;;;1.70;100.00;99171.97;15307749;19;20082;-78
2022/12/27 08:07:37;;;;;;;3.30;1.60;;;;;;;1.69;100.00;99181.72;15307423;19;20010;-78
2022/12/27 08:13:02;;;;;;;3.63;1.40;;;;;;;1.70;100.00;99182.59;15304528;19;20011;-78
2022/12/27 08:18:30;;;;;;;2.90;1.10;;;;;;;1.82;100.00;99178.38;15304842;19;20592;-78
2022/12/27 08:23:54;;;;;;;4.55;1.40;;;;;;;1.93;100.00;99191.06;15301480;19;20086;-79
2022/12/27 08:29:26;;;;;;;3.42;1.20;;;;;;;2.00;100.00;99184.44;15303743;19;20028;-78
2022/12/27 08:34:53;;;;;;;7.90;1.63;;;;;;;1.99;100.00;99180.06;15303514;19;20014;-78
2022/12/27 08:40:38;;;;;;;5.03;1.70;;;;;;;2.02;100.00;99179.91;15290555;19;20009;-78
2022/12/27 08:46:04;;;;;;;4.90;1.20;;;;;;;2.02;100.00;99171.94;15290173;19;20051;-78
2022/12/27 08:51:31;;;;;;;2.90;1.17;;;;;;;2.12;100.00;99172.22;15297226;19;20013;-78
2022/12/27 08:56:58;;;;;;;2.80;1.23;;;;;;;2.25;100.00;99194.50;15299560;19;20018;-78
2022/12/27 09:02:23;;;;;;;3.20;1.00;;;;;;;2.41;100.00;99188.28;15298081;19;20020;-79
2022/12/27 09:07:50;;;;;;;2.78;1.00;;;;;;;2.60;100.00;99199.53;15304577;19;20018;-77
2022/12/27 09:13:15;;;;;;;4.13;1.05;;;;;;;2.76;100.00;99193.31;15298736;19;20018;-78
2022/12/27 09:18:40;;;;;;;2.97;0.85;;;;;;;2.95;100.00;99198.38;15300567;19;20085;-78
2022/12/27 09:24:08;;;;;;;2.53;1.00;;;;;;;3.10;100.00;99204.56;15310945;19;20014;-79
2022/12/27 09:29:40;;;;;;;3.45;1.25;;;;;;;3.13;100.00;99206.16;15310433;19;20022;-78
2022/12/27 09:35:13;;;;;;;3.70;1.10;;;;;;;3.21;100.00;99219.88;15311361;19;20010;-78
2022/12/27 09:40:40;;;;;;;;;;;;;;;3.27;100.00;99226.66;15306699;19;20094;-78
2022/12/27 09:46:06;;;;;;;3.17;0.80;;;;;;;3.37;100.00;99214.47;15302784;19;19923;-79
2022/12/27 09:51:36;;;;;;;3.63;1.30;;;;;;;3.48;100.00;99206.66;15303154;19;20024;-80
2022/12/27 09:57:07;;;;;;;3.60;0.80;;;;;;;3.66;100.00;99214.41;15298102;19;20010;-79
2022/12/27 10:02:38;;;;;;;3.80;0.77;;;;;;;3.77;100.00;99200.41;15307106;19;20485;-80
2022/12/27 10:08:16;;;;;;;2.38;0.82;;;;;;;3.85;100.00;99214.09;15305019;19;20477;-80
2022/12/27 10:13:51;;;;;;;2.65;1.00;;;;;;;3.87;100.00;99200.69;15298570;19;19999;-79
2022/12/27 10:19:34;;;;;;;4.10;0.80;;;;;;;3.79;100.00;99191.34;15303399;19;20031;-78
2022/12/27 10:25:00;;;;;;;;;;;;;;;3.78;100.00;99188.81;15296955;19;20035;-78
2022/12/27 10:30:30;;;;;;;3.95;1.20;;;;;;;4.06;100.00;99197.69;15297384;19;19915;-79
2022/12/27 10:35:55;;;;;;;3.05;0.85;;;;;;;4.15;100.00;99181.06;15300668;19;20019;-79
2022/12/27 10:41:36;;;;;;;4.00;0.90;;;;;;;4.04;100.00;99175.59;15297849;19;20018;-78
2022/12/27 10:47:03;;;;;;;2.55;1.02;;;;;;;4.09;100.00;99176.13;15293696;19;20411;-78
2022/12/27 10:52:32;;;;;;;3.95;0.88;;;;;;;4.08;100.00;99179.75;15315147;19;20039;-78
2022/12/27 10:57:56;;;;;;;3.20;1.10;;;;;;;4.19;100.00;99193.22;15313613;19;20018;-78
2022/12/27 11:03:28;;;;;;;2.53;0.90;;;;;;;4.42;100.00;99186.38;15317103;19;20470;-78
2022/12/27 11:08:55;;;;;;;2.65;0.82;;;;;;;4.72;100.00;99197.72;15331376;19;20471;-77
2022/12/27 11:14:25;;;;;;;2.05;0.70;;;;;;;4.84;100.00;99196.03;15339493;19;20119;-78
2022/12/27 11:19:52;;;;;;;6.15;1.00;;;;;;;4.96;100.00;99205.84;15305250;19;20027;-78
2022/12/27 11:25:23;;;;;;;1.40;0.60;;;;;;;4.98;100.00;99189.75;15306822;19;20047;-79
2022/12/27 11:31:04;;;;;;;1.10;0.50;;;;;;;5.03;100.00;99204.50;15311212;19;20018;-78
2022/12/27 11:36:34;;;;;;;1.57;0.60;;;;;;;4.94;100.00;99192.63;15317460;19;20075;-78
2022/12/27 11:42:03;;;;;;;3.47;0.80;;;;;;;4.86;100.00;99200.31;15314082;19;20283;-78
2022/12/27 11:47:37;;;;;;;3.33;0.82;;;;;;;4.91;100.00;99187.50;15304598;19;20018;-78
2022/12/27 11:53:18;;;;;;;1.75;0.57;;;;;;;4.90;100.00;99180.44;15312071;19;20020;-78
2022/12/27 11:59:03;;;;;;;2.33;0.68;;;;;;;4.95;100.00;99156.06;15297576;19;20046;-77
2022/12/27 12:05:01;;;;;;;1.83;0.70;;;;;;;4.99;100.00;99168.25;15303569;19;20011;-77
2022/12/27 12:10:40;;;;;;;2.90;0.80;;;;;;;5.01;100.00;99176.16;15302144;19;20485;-78
2022/12/27 12:16:20;;;;;;;1.63;0.60;;;;;;;5.05;100.00;99169.66;15307920;19;20028;-82
2022/12/27 12:21:59;;;;;;;1.27;0.70;;;;;;;5.06;100.00;99174.03;15299308;19;20367;-77
2022/12/27 12:27:49;;;;;;;1.70;0.77;;;;;;;5.06;100.00;99179.38;15294607;19;20129;-77
2022/12/27 12:33:39;;;;;;;4.53;0.80;;;;;;;5.16;100.00;99179.59;15300281;19;20031;-77
2022/12/27 12:39:11;;;;;;;2.90;0.70;;;;;;;5.18;100.00;99188.34;15319394;19;20014;-79
2022/12/27 12:45:02;;;;;;;1.67;0.80;;;;;;;5.23;100.00;99192.38;15307088;19;20537;-79
2022/12/27 12:50:42;;;;;;;2.15;0.70;;;;;;;5.33;100.00;99205.13;15315215;19;20031;-79
2022/12/27 12:56:25;;;;;;;2.95;0.70;;;;;;;5.43;100.00;99191.94;15311756;19;20026;-79
2022/12/27 13:02:08;;;;;;;2.10;0.80;;;;;;;5.60;100.00;99194.28;15313271;19;20014;-80
2022/12/27 13:07:47;;;;;;;1.30;0.70;;;;;;;5.59;100.00;99202.38;15315025;19;20007;-79
2022/12/27 13:13:21;;;;;;;1.38;0.60;;;;;;;5.46;100.00;99203.28;15315821;19;20014;-77
2022/12/27 13:19:01;;;;;;;2.40;0.70;;;;;;;5.27;100.00;99205.53;15314511;19;20011;-78
2022/12/27 13:24:36;;;;;;;3.47;0.77;;;;;;;5.11;100.00;99209.31;15319274;19;20035;-78
2022/12/27 13:30:15;;;;;;;3.03;0.93;;;;;;;4.99;100.00;99196.81;15311472;19;20101;-78
2022/12/27 13:36:01;;;;;;;1.75;0.70;;;;;;;4.93;100.00;99196.25;15311889;19;20046;-78
2022/12/27 13:41:36;;;;;;;5.18;0.93;;;;;;;4.81;100.00;99191.75;15318054;19;20074;-78
2022/12/27 13:47:41;;;;;;;1.83;0.70;;;;;;;4.71;100.00;99202.19;15307008;19;20022;-77
2022/12/27 13:53:28;;;;;;;2.13;0.80;;;;;;;4.65;100.00;99199.09;14787310;19;10001103;-78
2022/12/27 13:59:22;;;;;;;2.15;0.80;;;;;;;4.61;100.00;99204.66;15295153;19;20007;-78
2022/12/27 14:05:25;;;;;;;1.77;0.75;;;;;;;4.65;100.00;99207.97;15294980;19;20011;-79
2022/12/27 14:10:54;;;;;;;3.10;0.60;;;;;;;4.61;100.00;99204.66;15288153;19;20037;-77
2022/12/27 14:16:48;;;;;;;2.78;0.70;;;;;;;4.60;100.00;99228.75;15296475;19;20029;-78
2022/12/27 14:22:44;;;;;;;1.73;0.63;;;;;;;4.57;100.00;99224.50;15291491;19;20478;-78
2022/12/27 14:28:48;;;;;;;3.17;1.10;;;;;;;4.57;100.00;99202.31;15280852;19;20030;-57
2022/12/27 14:34:51;;;;;;;2.30;0.60;;;;;;;4.59;100.00;99211.03;15275999;19;20015;-60
2022/12/27 14:40:52;;;;;;;2.60;0.90;;;;;;;4.60;100.00;99210.94;15272735;19;20021;-59
2022/12/27 14:46:45;;;;;;;4.03;0.98;;;;;;;4.66;100.00;99206.13;15279878;19;20051;-59
2022/12/27 14:52:48;;;;;;;2.45;0.75;;;;;;;4.62;100.00;99216.19;15280800;19;20613;-57
2022/12/27 14:58:22;;;;;;;;;;;;;;;4.57;100.00;99199.63;15280475;19;20037;-57
2022/12/27 15:04:06;;;;;;;2.63;0.93;;;;;;;4.44;100.00;99204.94;15280989;19;19931;-58
2022/12/27 15:09:39;;;;;;;3.22;0.98;;;;;;;4.48;100.00;99195.78;15277235;19;20043;-59
2022/12/27 15:15:18;;;;;;;2.42;0.68;;;;;;;4.37;100.00;99190.31;15269453;19;20015;-59
2022/12/27 15:21:00;;;;;;;1.23;0.70;;;;;;;4.25;100.00;99190.16;15276711;19;20333;-60
2022/12/27 15:26:37;;;;;;;2.20;0.73;;;;;;;4.20;100.00;99192.28;15277949;19;20098;-60
2022/12/27 15:32:21;;;;;;;1.92;0.82;;;;;;;4.13;100.00;99196.31;15278129;19;20018;-61
2022/12/27 15:38:08;;;;;;;2.47;0.80;;;;;;;4.06;100.00;99200.34;15281491;19;20086;-60
2022/12/27 15:44:03;;;;;;;1.52;0.60;;;;;;;3.94;100.00;99180.66;15286116;19;20035;-57
2022/12/27 15:49:53;;;;;;;2.25;0.80;;;;;;;3.80;100.00;99194.91;15287846;19;20018;-59
2022/12/27 15:55:34;;;;;;;3.03;0.60;;;;;;;3.75;100.00;99191.66;15290349;19;20014;-60
2022/12/27 16:01:30;;;;;;;3.25;0.80;;;;;;;3.75;100.00;99197.00;15287149;19;20019;-60
2022/12/27 16:07:00;;;;;;;3.22;0.80;;;;;;;3.77;100.00;99195.09;15289092;19;20365;-63
2022/12/27 16:12:40;;;;;;;3.33;0.80;;;;;;;3.73;100.00;99198.88;15287037;19;20093;-59
2022/12/27 16:18:05;;;;;;;3.00;1.00;;;;;;;3.69;100.00;99203.56;15282624;19;20031;-60
2022/12/27 16:23:33;;;;;;;1.65;0.95;;;;;;;3.67;100.00;99205.47;15290908;19;20018;-58
2022/12/27 16:29:11;;;;;;;4.47;0.70;;;;;;;3.68;100.00;99202.72;15285293;19;20094;-60
2022/12/27 16:34:36;;;;;;;2.28;0.80;;;;;;;3.61;100.00;99196.06;15291588;19;20014;-56
2022/12/27 16:40:15;;;;;;;3.97;0.90;;;;;;;3.50;100.00;99194.09;15289539;19;20018;-60
2022/12/27 16:45:53;;;;;;;2.65;0.93;;;;;;;3.50;100.00;99193.22;15289985;19;20035;-60
2022/12/27 16:51:28;;;;;;;2.53;1.00;;;;;;;3.45;100.00;99190.84;15282656;19;20014;-57
2022/12/27 16:56:53;;;;;;;3.85;1.10;;;;;;;3.40;100.00;99187.63;15291539;19;20889;-55
2022/12/27 17:02:38;;;;;;;3.10;1.20;;;;;;;3.33;100.00;99196.94;15290566;19;20086;-58
2022/12/27 17:08:16;;;;;;;3.38;1.30;;;;;;;3.33;100.00;99205.81;15287313;19;20027;-55
2022/12/27 17:13:52;;;;;;;3.88;1.42;;;;;;;3.33;100.00;99203.16;15284847;19;20014;-59
2022/12/27 17:19:22;;;;;;;3.03;1.08;;;;;;;3.25;100.00;99216.06;15279570;19;20089;-59
2022/12/27 17:24:47;;;;;;;3.90;1.20;;;;;;;3.24;100.00;99211.69;15282007;19;20021;-58
2022/12/27 17:30:21;;;;;;;4.13;1.10;;;;;;;3.23;100.00;99207.34;15287687;19;20018;-60
2022/12/27 17:36:01;;;;;;;2.95;0.90;;;;;;;3.22;100.00;99214.47;15288982;19;20017;-58
2022/12/27 17:47:25;;;;;;;4.22;1.00;;;;;;;3.06;100.00;99221.66;15280727;19;20010;-56
2022/12/27 17:58:54;;;;;;;3.95;1.60;;;;;;;3.00;100.00;99204.25;15284425;19;20490;-57
2022/12/27 18:04:24;;;;;;;4.63;1.45;;;;;;;2.94;100.00;99204.66;15286534;19;20733;-59
2022/12/27 18:09:55;;;;;;;3.30;1.70;;;;;;;2.95;100.00;99208.16;15284342;19;20014;-60
2022/12/27 18:15:23;;;;;;;3.13;1.50;;;;;;;2.94;100.00;99204.66;15285039;19;20007;-60
2022/12/27 18:20:49;;;;;;;2.47;1.50;;;;;;;2.91;100.00;99186.19;15277177;19;20089;-60
2022/12/27 18:26:17;;;;;;;3.33;1.50;;;;;;;2.80;100.00;99199.31;15279258;19;20519;-58
2022/12/27 18:31:56;;;;;;;3.63;1.70;;;;;;;2.71;100.00;99196.25;15280372;19;20018;-56
2022/12/27 18:37:23;;;;;;;4.78;1.40;;;;;;;2.58;100.00;99205.91;15284191;19;20021;-59
2022/12/27 18:42:52;;;;;;;2.65;1.10;;;;;;;2.56;100.00;99197.16;15284925;19;20013;-57
2022/12/27 18:48:20;;;;;;;2.72;1.27;;;;;;;2.55;100.00;99203.44;15280413;19;20035;-55
2022/12/27 18:53:52;;;;;;;6.75;1.60;;;;;;;2.49;100.00;99198.47;15281491;19;20011;-58
2022/12/27 18:59:26;;;;;;;3.13;1.20;;;;;;;2.41;100.00;99207.75;15277644;19;20007;-59
2022/12/27 19:04:53;;;;;;;3.10;1.50;;;;;;;2.42;100.00;99196.16;15288212;19;20010;-62
2022/12/27 19:10:19;;;;;;;3.10;1.70;;;;;;;2.41;100.00;99205.09;15292718;19;20015;-60
2022/12/27 19:15:44;;;;;;;3.55;1.40;;;;;;;2.34;100.00;99198.44;15298942;19;20082;-62
2022/12/27 19:21:11;;;;;;;3.17;1.30;;;;;;;2.31;100.00;99191.50;15292678;19;20516;-58
2022/12/27 19:26:36;;;;;;;3.22;1.50;;;;;;;2.28;100.00;99198.81;15292225;19;20018;-60
2022/12/27 19:32:13;;;;;;;2.78;1.35;;;;;;;2.20;100.00;99185.09;15285760;19;20011;-57
2022/12/27 19:37:38;;;;;;;3.97;1.50;;;;;;;2.18;100.00;99169.22;15297579;19;20411;-59
2022/12/27 19:43:02;;;;;;;3.78;1.67;;;;;;;2.21;100.00;99170.84;15297090;19;21265;-60
2022/12/27 19:48:29;;;;;;;4.82;1.50;;;;;;;2.23;100.00;99175.16;15292194;19;20018;-59
2022/12/27 19:53:58;;;;;;;2.90;1.38;;;;;;;2.27;100.00;99167.84;15294835;19;20018;-59
2022/12/27 19:59:24;;;;;;;3.55;1.98;;;;;;;2.26;100.00;99166.13;15290850;19;20030;-59
2022/12/27 20:04:52;;;;;;;4.97;1.83;;;;;;;2.19;100.00;99156.78;15288909;19;20025;-58
2022/12/27 20:10:17;;;;;;;3.60;1.30;;;;;;;2.12;100.00;99143.88;15292731;19;20570;-58
2022/12/27 20:15:41;;;;;;;4.50;1.40;;;;;;;2.09;100.00;99146.69;15296144;19;20021;-58
2022/12/27 20:21:13;;;;;;;4.18;1.80;;;;;;;2.06;100.00;99138.88;15291356;19;20006;-57
2022/12/27 20:26:37;;;;;;;3.95;1.20;;;;;;;2.10;100.00;99131.63;15290393;19;20118;-61
2022/12/27 20:32:09;;;;;;;2.63;1.23;;;;;;;2.13;100.00;99132.28;15290915;19;20022;-58
2022/12/27 20:37:36;;;;;;;3.73;1.50;;;;;;;2.08;100.00;99122.88;15293257;19;20439;-59
2022/12/27 20:43:02;;;;;;;3.10;1.30;;;;;;;2.04;100.00;99132.84;15294103;19;20014;-59
2022/12/27 20:48:27;;;;;;;3.78;1.50;;;;;;;2.04;100.00;99132.84;15292265;19;20017;-57
2022/12/27 20:53:55;;;;;;;4.15;1.50;;;;;;;2.07;100.00;99139.75;15270820;19;20010;-61
2022/12/27 20:59:20;;;;;;;3.75;1.30;;;;;;;2.10;100.00;99137.78;15283659;19;20016;-63
2022/12/27 21:04:44;;;;;;;2.67;1.20;;;;;;;2.12;100.00;99119.94;15285830;19;20574;-63
2022/12/27 21:10:12;;;;;;;3.67;1.45;;;;;;;2.03;100.00;99109.84;15288541;19;20365;-59
2022/12/27 21:15:37;;;;;;;4.07;1.85;;;;;;;2.00;100.00;99110.03;15284727;19;20070;-58
2022/12/27 21:21:06;;;;;;;6.18;1.88;;;;;;;1.93;100.00;99114.00;15283378;19;20053;-56
2022/12/27 21:26:35;;;;;;;4.03;1.65;;;;;;;1.92;100.00;99112.28;15284980;19;20057;-61
2022/12/27 21:32:06;;;;;;;4.50;1.75;;;;;;;1.91;100.00;99115.88;15276665;19;20029;-60
2022/12/27 21:37:31;;;;;;;4.23;1.80;;;;;;;1.89;100.00;99125.75;15279108;19;20024;-62
2022/12/27 21:42:58;;;;;;;4.63;1.80;;;;;;;1.92;100.00;99114.94;15284313;19;20017;-56
2022/12/27 21:48:23;;;;;;;5.78;2.20;;;;;;;1.94;100.00;99116.56;15282952;19;20527;-57
2022/12/27 21:53:49;;;;;;;5.28;1.73;;;;;;;1.92;100.00;99106.97;15284405;19;20057;-60
2022/12/27 21:59:16;;;;;;;4.18;1.80;;;;;;;1.83;100.00;99108.34;15280096;19;20010;-60
2022/12/27 22:04:41;;;;;;;6.78;1.90;;;;;;;1.82;100.00;99099.50;15280938;19;20073;-57
2022/12/27 22:10:07;;;;;;;3.85;1.63;;;;;;;1.81;100.00;99084.53;15277667;19;20018;-61
2022/12/27 22:15:34;;;;;;;2.72;1.40;;;;;;;1.79;100.00;99078.47;15282173;19;20010;-57
2022/12/27 22:21:00;;;;;;;6.07;1.60;;;;;;;1.78;100.00;99091.81;15283199;19;20043;-58
2022/12/27 22:26:28;;;;;;;4.10;1.60;;;;;;;1.78;100.00;99079.41;15285165;19;20013;-61
2022/12/27 22:31:55;;;;;;;5.00;1.70;;;;;;;1.80;100.00;99073.97;15281577;19;20013;-60
2022/12/27 22:37:20;;;;;;;5.03;1.42;;;;;;;1.82;100.00;99059.66;15280636;19;20078;-60
2022/12/27 22:42:45;;;;;;;4.70;1.33;;;;;;;1.85;100.00;99056.81;15278357;19;20021;-60
2022/12/27 22:48:12;;;;;;;3.38;1.23;;;;;;;1.99;100.00;99055.16;15299529;19;20025;-61
2022/12/27 22:53:37;;;;;;;3.92;1.30;;;;;;;2.06;100.00;99040.53;15300767;19;20021;-60
2022/12/27 22:59:02;;;;;;;5.55;1.17;;;;;;;2.12;100.00;99049.94;15298424;19;20023;-61
2022/12/27 23:04:29;;;;;;;2.65;1.20;;;;;;;2.13;100.00;99052.53;15297060;19;20021;-61
2022/12/27 23:09:54;;;;;;;2.97;1.27;;;;;;;2.11;100.00;99040.28;15289306;19;20078;-60
2022/12/27 23:15:19;;;;;;;3.65;1.20;;;;;;;2.11;100.00;99033.16;15287225;19;20101;-58
2022/12/27 23:20:46;;;;;;;3.10;1.00;;;;;;;2.08;100.00;99033.34;15290322;19;20017;-61
2022/12/27 23:26:31;;;;;;;2.70;1.00;;;;;;;1.98;100.00;99029.53;15298392;19;20353;-60
2022/12/27 23:32:02;;;;;;;3.60;1.20;;;;;;;1.91;100.00;99023.72;15293581;19;20527;-58
2022/12/27 23:37:29;;;;;;;4.77;1.30;;;;;;;1.82;100.00;99019.81;15295254;19;20014;-61
2022/12/27 23:42:54;;;;;;;4.13;1.40;;;;;;;1.74;100.00;99006.13;15290428;19;20014;-58
2022/12/27 23:48:39;;;;;;;3.25;1.25;;;;;;;1.70;100.00;98999.31;15287956;19;20015;-60
2022/12/27 23:54:07;;;;;;;3.30;1.27;;;;;;;1.62;100.00;98993.56;15296961;19;20396;-61
2022/12/27 23:59:32;;;;;;;6.25;1.70;;;;;;;1.52;100.00;98985.31;15293758;19;20468;-61
